Time;durP1;ratioP1;P1;durP2;ratioP2;P2;SDS_P1;SDS_P2;PMS_P1;PMS_P2;Temp;Humidity;BMP_temperature;BMP_pressure;BME280_temperature;BME280_humidity;BME280_pressure;Samples;Min_cycle;Max_cycle;Signal;HPM_P1;HPM_P2
2023/03/23 00:02:22;;;;;;;2.13;1.40;;;;;;;;;;5045908;28;20405;-87
2023/03/23 00:04:49;;;;;;;2.22;1.38;;;;;;;;;;5043565;28;20282;-85
2023/03/23 00:07:21;;;;;;;2.83;1.10;;;;;;;;;;5042710;28;20112;-84
2023/03/23 00:09:53;;;;;;;1.65;0.88;;;;;;;;;;5057198;28;20033;-87
2023/03/23 00:12:33;;;;;;;2.65;0.98;;;;;;;;;;5057544;28;20497;-87
2023/03/23 00:15:06;;;;;;;1.25;1.15;;;;;;;;;;5038605;28;20365;-86
2023/03/23 00:17:32;;;;;;;1.85;1.42;;;;;;;;;;5041047;28;20037;-87
2023/03/23 00:20:00;;;;;;;1.92;1.17;;;;;;;;;;5047193;28;20021;-85
2023/03/23 00:22:27;;;;;;;1.35;1.00;;;;;;;;;;5039532;28;20174;-85
2023/03/23 00:24:53;;;;;;;1.75;1.05;;;;;;;;;;5040771;28;20490;-86
2023/03/23 00:27:21;;;;;;;4.97;1.85;;;;;;;;;;5041753;28;20102;-84
2023/03/23 00:29:47;;;;;;;1.65;0.90;;;;;;;;;;5039537;28;20036;-84
2023/03/23 00:32:14;;;;;;;1.48;1.15;;;;;;;;;;5043368;28;20040;-84
2023/03/23 00:34:42;;;;;;;2.33;1.63;;;;;;;;;;5040725;28;20068;-84
2023/03/23 00:37:09;;;;;;;3.33;1.70;;;;;;;;;;5045123;28;20021;-86
2023/03/23 00:39:36;;;;;;;2.90;1.67;;;;;;;;;;5036339;28;20121;-86
2023/03/23 00:42:02;;;;;;;2.05;1.05;;;;;;;;;;5038500;28;20392;-86
2023/03/23 00:44:30;;;;;;;1.85;1.15;;;;;;;;;;5043479;28;20032;-85
2023/03/23 00:46:56;;;;;;;3.72;2.53;;;;;;;;;;5040760;28;20029;-85
2023/03/23 00:49:26;;;;;;;1.15;0.85;;;;;;;;;;5037966;28;20048;-86
2023/03/23 00:51:57;;;;;;;2.25;1.20;;;;;;;;;;5045313;28;20433;-83
2023/03/23 00:54:24;;;;;;;2.45;0.95;;;;;;;;;;5044802;28;20043;-83
2023/03/23 00:56:50;;;;;;;4.32;1.35;;;;;;;;;;5042437;28;20389;-82
2023/03/23 00:59:17;;;;;;;1.58;1.40;;;;;;;;;;5039515;28;20437;-82
2023/03/23 01:01:43;;;;;;;1.83;1.48;;;;;;;;;;5043987;28;20045;-83
2023/03/23 01:04:11;;;;;;;3.22;1.83;;;;;;;;;;5037707;28;20099;-83
2023/03/23 01:06:39;;;;;;;2.28;1.48;;;;;;;;;;5038892;28;20033;-83
2023/03/23 01:09:07;;;;;;;1.55;1.45;;;;;;;;;;5038154;28;20053;-86
2023/03/23 01:11:33;;;;;;;2.53;1.50;;;;;;;;;;5043364;28;20032;-84
2023/03/23 01:13:59;;;;;;;2.13;0.95;;;;;;;;;;5041603;28;20040;-87
2023/03/23 01:16:25;;;;;;;1.52;1.15;;;;;;;;;;5040371;28;20026;-83
2023/03/23 01:18:51;;;;;;;2.55;1.17;;;;;;;;;;5042322;28;20083;-86
2023/03/23 01:21:19;;;;;;;1.90;1.33;;;;;;;;;;5041701;28;20041;-85
2023/03/23 01:23:45;;;;;;;4.85;2.30;;;;;;;;;;5041353;28;20080;-83
2023/03/23 01:26:13;;;;;;;1.98;1.23;;;;;;;;;;5056412;28;20025;-87
2023/03/23 01:28:39;;;;;;;1.95;1.50;;;;;;;;;;5040924;28;20500;-85
2023/03/23 01:31:14;;;;;;;0.85;0.82;;;;;;;;;;5038606;28;20478;-86
2023/03/23 01:33:41;;;;;;;1.98;1.35;;;;;;;;;;5038229;28;20025;-87
2023/03/23 01:36:18;;;;;;;1.10;0.98;;;;;;;;;;5043855;28;20040;-85
2023/03/23 01:38:45;;;;;;;3.05;1.73;;;;;;;;;;5046391;28;20493;-86
2023/03/23 01:41:12;;;;;;;3.42;1.92;;;;;;;;;;5043356;28;20029;-86
2023/03/23 01:44:12;;;;;;;3.97;1.88;;;;;;;;;;5045176;28;20020;-85
2023/03/23 01:46:37;;;;;;;2.92;1.90;;;;;;;;;;5042290;28;20017;-86
2023/03/23 01:49:09;;;;;;;1.77;1.25;;;;;;;;;;5043989;28;20140;-86
2023/03/23 01:51:42;;;;;;;3.10;1.83;;;;;;;;;;5045107;28;20025;-83
2023/03/23 01:54:13;;;;;;;2.35;1.67;;;;;;;;;;5043638;28;20029;-85
2023/03/23 01:56:47;;;;;;;1.92;1.65;;;;;;;;;;5044469;28;20401;-86
2023/03/23 01:59:13;;;;;;;1.83;1.30;;;;;;;;;;5045234;28;20077;-85
2023/03/23 02:01:44;;;;;;;4.38;1.80;;;;;;;;;;5044294;28;20048;-86
2023/03/23 02:04:14;;;;;;;4.03;2.05;;;;;;;;;;5046485;28;20052;-87
2023/03/23 02:06:40;;;;;;;5.00;2.72;;;;;;;;;;5045786;28;20021;-86
2023/03/23 02:09:08;;;;;;;10.88;3.88;;;;;;;;;;5041945;28;20037;-83
2023/03/23 02:11:34;;;;;;;2.38;2.00;;;;;;;;;;5043396;28;20037;-86
2023/03/23 02:14:01;;;;;;;3.53;1.88;;;;;;;;;;5043099;28;20367;-84
2023/03/23 02:16:49;;;;;;;2.80;1.48;;;;;;;;;;5049699;28;20116;-83
2023/03/23 02:19:33;;;;;;;2.92;1.80;;;;;;;;;;5040606;28;20025;-82
2023/03/23 02:22:05;;;;;;;3.10;1.90;;;;;;;;;;5044733;28;20108;-84
2023/03/23 02:24:50;;;;;;;3.65;1.77;;;;;;;;;;5043835;28;20426;-85
2023/03/23 02:27:57;;;;;;;2.63;2.17;;;;;;;;;;5044316;28;20033;-86
2023/03/23 02:30:38;;;;;;;2.53;1.95;;;;;;;;;;5046658;28;20048;-86
2023/03/23 02:33:32;;;;;;;9.13;2.80;;;;;;;;;;5040232;28;20771;-85
2023/03/23 02:36:12;;;;;;;8.77;2.67;;;;;;;;;;5043568;28;20077;-86
2023/03/23 02:38:40;;;;;;;;;;;;;;;;;;5051045;28;20039;-86
2023/03/23 02:41:07;;;;;;;1.60;1.10;;;;;;;;;;5042651;28;20408;-84
2023/03/23 02:43:39;;;;;;;3.72;1.95;;;;;;;;;;5042897;28;20025;-85
2023/03/23 02:46:08;;;;;;;3.60;2.20;;;;;;;;;;5039814;28;20104;-86
2023/03/23 02:48:34;;;;;;;4.32;2.50;;;;;;;;;;5047576;28;20029;-86
2023/03/23 02:51:03;;;;;;;3.85;3.05;;;;;;;;;;5047398;28;20044;-87
2023/03/23 02:53:30;;;;;;;3.20;1.90;;;;;;;;;;5042401;28;20033;-86
2023/03/23 02:55:57;;;;;;;5.25;2.67;;;;;;;;;;5060533;28;20025;-87
2023/03/23 02:58:23;;;;;;;4.15;2.58;;;;;;;;;;5044728;28;20101;-86
2023/03/23 03:00:50;;;;;;;2.88;2.38;;;;;;;;;;5047252;28;20105;-85
2023/03/23 03:03:20;;;;;;;4.70;3.10;;;;;;;;;;5049915;28;20414;-86
2023/03/23 03:05:59;;;;;;;;;;;;;;;;;;5042114;28;20028;-86
2023/03/23 03:08:51;;;;;;;3.60;2.17;;;;;;;;;;5042249;28;19924;-85
2023/03/23 03:11:18;;;;;;;8.55;2.78;;;;;;;;;;5035762;28;20609;-85
2023/03/23 03:14:05;;;;;;;2.50;1.77;;;;;;;;;;5045790;28;20029;-84
2023/03/23 03:16:34;;;;;;;3.53;2.60;;;;;;;;;;5041405;28;20385;-84
2023/03/23 03:19:06;;;;;;;7.90;3.13;;;;;;;;;;5043380;28;20469;-84
2023/03/23 03:21:37;;;;;;;3.83;1.75;;;;;;;;;;5041250;28;20047;-84
2023/03/23 03:24:07;;;;;;;3.72;2.65;;;;;;;;;;5045246;28;20029;-85
2023/03/23 03:26:34;;;;;;;2.20;1.70;;;;;;;;;;5038895;28;20057;-85
2023/03/23 03:29:01;;;;;;;4.45;2.90;;;;;;;;;;5045376;28;20496;-86
2023/03/23 03:31:35;;;;;;;1.35;1.08;;;;;;;;;;5039878;28;20037;-85
2023/03/23 03:34:01;;;;;;;3.90;2.05;;;;;;;;;;5045291;28;20559;-84
2023/03/23 03:36:34;;;;;;;4.22;2.40;;;;;;;;;;5041183;28;20029;-86
2023/03/23 03:39:04;;;;;;;4.47;2.58;;;;;;;;;;5044356;28;20033;-85
2023/03/23 03:41:30;;;;;;;3.67;2.38;;;;;;;;;;5041328;28;20441;-87
2023/03/23 03:43:56;;;;;;;3.05;2.00;;;;;;;;;;5040877;28;20065;-84
2023/03/23 03:46:21;;;;;;;2.65;2.05;;;;;;;;;;5041837;28;20017;-83
2023/03/23 03:48:46;;;;;;;5.57;2.65;;;;;;;;;;5042327;28;20037;-85
2023/03/23 03:51:12;;;;;;;3.65;2.15;;;;;;;;;;5042574;28;20029;-86
2023/03/23 03:53:37;;;;;;;3.13;2.03;;;;;;;;;;5042689;28;20025;-85
2023/03/23 03:56:05;;;;;;;2.95;1.92;;;;;;;;;;5042740;28;20033;-85
2023/03/23 03:58:35;;;;;;;4.65;2.60;;;;;;;;;;5043499;28;20026;-86
2023/03/23 04:01:02;;;;;;;2.70;1.75;;;;;;;;;;5038515;28;20473;-87
2023/03/23 04:03:28;;;;;;;3.05;2.10;;;;;;;;;;5043186;28;20847;-85
2023/03/23 04:05:55;;;;;;;4.25;2.15;;;;;;;;;;5043935;28;20033;-84
2023/03/23 04:08:23;;;;;;;2.97;1.70;;;;;;;;;;5047489;28;20032;-84
2023/03/23 04:10:49;;;;;;;3.15;1.83;;;;;;;;;;5061107;28;20024;-84
2023/03/23 04:13:15;;;;;;;3.22;2.13;;;;;;;;;;5041373;28;20053;-85
2023/03/23 04:15:41;;;;;;;3.22;1.80;;;;;;;;;;5042413;28;20370;-84
2023/03/23 04:18:06;;;;;;;2.95;1.92;;;;;;;;;;5044135;28;20029;-84
2023/03/23 04:20:32;;;;;;;4.03;2.33;;;;;;;;;;5039223;28;20028;-85
2023/03/23 04:22:57;;;;;;;2.25;2.00;;;;;;;;;;5043469;28;20029;-84
2023/03/23 04:25:23;;;;;;;4.25;2.20;;;;;;;;;;5043785;28;20025;-85
2023/03/23 04:27:55;;;;;;;3.13;2.15;;;;;;;;;;5043990;28;20021;-85
2023/03/23 04:30:23;;;;;;;1.95;1.60;;;;;;;;;;5038177;28;20060;-87
2023/03/23 04:32:50;;;;;;;2.47;1.90;;;;;;;;;;5043835;28;20049;-83
2023/03/23 04:35:17;;;;;;;3.42;1.98;;;;;;;;;;5041529;28;20533;-83
2023/03/23 04:37:43;;;;;;;4.22;2.05;;;;;;;;;;5043874;28;20101;-85
2023/03/23 04:40:14;;;;;;;1.95;1.35;;;;;;;;;;5040381;28;20480;-85
2023/03/23 04:42:41;;;;;;;3.78;1.98;;;;;;;;;;5040983;28;20029;-87
2023/03/23 04:45:07;;;;;;;1.50;1.33;;;;;;;;;;5041604;28;20106;-84
2023/03/23 04:47:39;;;;;;;4.68;2.20;;;;;;;;;;5040194;28;20433;-84
2023/03/23 04:50:11;;;;;;;2.83;1.90;;;;;;;;;;5045896;28;20021;-84
2023/03/23 04:52:38;;;;;;;3.92;2.55;;;;;;;;;;5041749;28;20025;-84
2023/03/23 04:55:08;;;;;;;2.90;1.70;;;;;;;;;;5044808;28;20029;-83
2023/03/23 04:57:34;;;;;;;;;;;;;;;;;;5039385;28;20497;-84
2023/03/23 05:00:08;;;;;;;3.63;1.80;;;;;;;;;;5041321;28;19913;-85
2023/03/23 05:02:35;;;;;;;4.10;2.85;;;;;;;;;;5040606;28;20120;-84
2023/03/23 05:05:00;;;;;;;4.75;2.42;;;;;;;;;;5035965;28;20029;-82
2023/03/23 05:07:26;;;;;;;4.47;2.67;;;;;;;;;;5034097;28;20040;-81
2023/03/23 05:09:51;;;;;;;4.45;1.92;;;;;;;;;;5042855;28;20021;-82
2023/03/23 05:12:17;;;;;;;4.53;2.95;;;;;;;;;;5045063;28;20698;-82
2023/03/23 05:14:42;;;;;;;4.85;1.92;;;;;;;;;;5038327;28;20093;-82
2023/03/23 05:17:08;;;;;;;6.60;3.38;;;;;;;;;;5046662;28;20150;-82
2023/03/23 05:19:35;;;;;;;3.00;1.70;;;;;;;;;;5042594;28;20029;-83
2023/03/23 05:22:03;;;;;;;5.07;2.90;;;;;;;;;;5045138;28;20029;-82
2023/03/23 05:24:32;;;;;;;4.82;2.50;;;;;;;;;;5039954;28;20048;-83
2023/03/23 05:26:59;;;;;;;2.92;2.10;;;;;;;;;;5045154;28;20079;-81
2023/03/23 05:29:25;;;;;;;7.72;3.35;;;;;;;;;;5046435;28;20040;-82
2023/03/23 05:31:52;;;;;;;3.47;3.10;;;;;;;;;;5037876;28;20026;-82
2023/03/23 05:34:19;;;;;;;6.95;3.40;;;;;;;;;;5038691;28;20104;-83
2023/03/23 05:36:45;;;;;;;3.13;1.90;;;;;;;;;;5038421;28;20346;-81
2023/03/23 05:39:11;;;;;;;6.50;2.83;;;;;;;;;;5040005;28;20079;-83
2023/03/23 05:41:37;;;;;;;2.97;2.15;;;;;;;;;;5039761;28;20362;-82
2023/03/23 05:44:03;;;;;;;4.90;3.05;;;;;;;;;;5038291;28;20091;-81
2023/03/23 05:46:29;;;;;;;4.25;2.70;;;;;;;;;;5042703;28;20126;-81
2023/03/23 05:48:54;;;;;;;7.53;3.83;;;;;;;;;;5031456;28;20802;-83
2023/03/23 05:51:20;;;;;;;5.07;3.33;;;;;;;;;;5036995;28;20068;-84
2023/03/23 05:53:47;;;;;;;4.72;3.28;;;;;;;;;;5029947;28;20029;-81
2023/03/23 05:56:12;;;;;;;7.22;4.57;;;;;;;;;;5044751;28;20021;-82
2023/03/23 05:58:38;;;;;;;14.35;7.88;;;;;;;;;;5034936;28;20094;-85
2023/03/23 06:01:07;;;;;;;11.38;6.10;;;;;;;;;;5036950;28;20112;-86
2023/03/23 06:03:35;;;;;;;10.82;5.53;;;;;;;;;;5041793;28;20049;-84
2023/03/23 06:06:04;;;;;;;11.65;6.88;;;;;;;;;;5043581;28;20077;-86
2023/03/23 06:08:30;;;;;;;12.60;6.50;;;;;;;;;;5042035;28;20074;-84
2023/03/23 06:10:56;;;;;;;10.55;6.30;;;;;;;;;;5041616;28;20038;-84
2023/03/23 06:13:22;;;;;;;15.70;8.05;;;;;;;;;;5039324;28;20469;-86
2023/03/23 06:15:48;;;;;;;12.68;8.00;;;;;;;;;;5041210;28;20021;-86
2023/03/23 06:18:14;;;;;;;10.90;7.43;;;;;;;;;;5041226;28;20496;-85
2023/03/23 06:20:40;;;;;;;12.40;8.15;;;;;;;;;;5038548;28;20055;-84
2023/03/23 06:23:06;;;;;;;12.63;6.63;;;;;;;;;;5037255;28;20034;-85
2023/03/23 06:25:32;;;;;;;11.20;6.60;;;;;;;;;;5045662;28;20552;-85
2023/03/23 06:27:58;;;;;;;13.93;7.15;;;;;;;;;;5038472;28;20048;-83
2023/03/23 06:30:23;;;;;;;12.52;5.82;;;;;;;;;;5040379;28;20025;-84
2023/03/23 06:32:50;;;;;;;12.70;6.82;;;;;;;;;;5038469;28;20083;-84
2023/03/23 06:35:16;;;;;;;14.02;9.05;;;;;;;;;;5036234;28;20408;-84
2023/03/23 06:37:41;;;;;;;13.65;8.43;;;;;;;;;;5039921;28;20071;-85
2023/03/23 06:40:09;;;;;;;12.00;7.45;;;;;;;;;;5040152;28;20442;-84
2023/03/23 06:42:35;;;;;;;16.20;7.68;;;;;;;;;;5036619;28;20079;-81
2023/03/23 06:45:01;;;;;;;10.48;6.50;;;;;;;;;;5042404;28;20041;-84
2023/03/23 06:47:30;;;;;;;8.02;6.13;;;;;;;;;;5039027;28;20033;-82
2023/03/23 06:49:59;;;;;;;12.60;6.25;;;;;;;;;;5044317;28;20035;-81
2023/03/23 06:52:25;;;;;;;11.95;7.55;;;;;;;;;;5037773;28;20036;-82
2023/03/23 06:54:52;;;;;;;13.10;7.35;;;;;;;;;;5035215;28;20039;-82
2023/03/23 06:57:18;;;;;;;10.65;6.35;;;;;;;;;;5037893;28;20046;-82
2023/03/23 06:59:44;;;;;;;13.52;7.45;;;;;;;;;;5039454;28;20060;-82
2023/03/23 07:02:11;;;;;;;13.55;7.05;;;;;;;;;;5042344;28;20057;-82
2023/03/23 07:04:38;;;;;;;17.10;7.25;;;;;;;;;;5040268;28;20090;-83
2023/03/23 07:07:05;;;;;;;9.30;6.45;;;;;;;;;;5041591;28;20094;-83
2023/03/23 07:09:31;;;;;;;10.25;6.57;;;;;;;;;;5045065;28;20555;-83
2023/03/23 07:11:56;;;;;;;13.35;8.25;;;;;;;;;;5031104;28;20076;-82
2023/03/23 07:14:22;;;;;;;18.38;8.43;;;;;;;;;;5034447;28;20426;-81
2023/03/23 07:16:48;;;;;;;15.00;8.20;;;;;;;;;;5041108;28;20020;-82
2023/03/23 07:19:14;;;;;;;8.85;6.90;;;;;;;;;;5038160;28;20026;-82
2023/03/23 07:21:39;;;;;;;13.27;7.82;;;;;;;;;;5032693;28;20039;-83
2023/03/23 07:24:05;;;;;;;13.23;7.72;;;;;;;;;;5039076;28;20082;-81
2023/03/23 07:26:31;;;;;;;11.48;8.75;;;;;;;;;;5052166;28;20060;-82
2023/03/23 07:28:57;;;;;;;12.40;7.18;;;;;;;;;;5031517;28;20486;-82
2023/03/23 07:31:22;;;;;;;13.77;8.25;;;;;;;;;;5051290;28;20071;-83
2023/03/23 07:33:48;;;;;;;14.25;7.03;;;;;;;;;;5042215;28;20082;-83
2023/03/23 07:36:13;;;;;;;13.18;7.32;;;;;;;;;;5033029;28;20048;-83
2023/03/23 07:38:39;;;;;;;12.77;7.38;;;;;;;;;;5037394;28;20083;-81
2023/03/23 07:41:06;;;;;;;17.58;7.75;;;;;;;;;;5036944;28;20026;-83
2023/03/23 07:43:31;;;;;;;46.95;23.40;;;;;;;;;;5036774;28;20108;-81
2023/03/23 07:45:57;;;;;;;13.57;8.77;;;;;;;;;;5037170;28;20124;-82
2023/03/23 07:48:23;;;;;;;18.20;10.45;;;;;;;;;;5028419;28;20021;-80
2023/03/23 07:50:48;;;;;;;10.35;5.72;;;;;;;;;;5036650;28;20079;-82
2023/03/23 07:53:15;;;;;;;11.60;7.25;;;;;;;;;;5037499;28;20071;-82
2023/03/23 07:55:40;;;;;;;16.48;6.32;;;;;;;;;;5040462;28;20470;-82
2023/03/23 07:58:07;;;;;;;12.88;7.28;;;;;;;;;;5040094;28;20047;-82
2023/03/23 08:00:32;;;;;;;13.05;7.38;;;;;;;;;;5041602;28;20021;-81
2023/03/23 08:02:59;;;;;;;10.88;6.63;;;;;;;;;;5032283;28;20413;-82
2023/03/23 08:05:26;;;;;;;10.30;5.68;;;;;;;;;;5036847;28;20040;-83
2023/03/23 08:07:54;;;;;;;10.18;6.18;;;;;;;;;;5033835;28;20029;-82
2023/03/23 08:10:24;;;;;;;9.63;5.68;;;;;;;;;;5030539;28;20113;-82
2023/03/23 08:12:56;;;;;;;15.73;5.93;;;;;;;;;;5035721;28;20057;-81
2023/03/23 08:15:22;;;;;;;12.45;7.18;;;;;;;;;;5031835;28;20032;-83
2023/03/23 08:17:50;;;;;;;14.32;5.30;;;;;;;;;;5037896;28;20044;-83
2023/03/23 08:20:18;;;;;;;9.75;4.22;;;;;;;;;;5043790;28;20040;-85
2023/03/23 08:22:45;;;;;;;7.57;4.53;;;;;;;;;;5033436;28;20034;-82
2023/03/23 08:25:14;;;;;;;8.23;5.22;;;;;;;;;;5029505;28;20025;-82
2023/03/23 08:27:43;;;;;;;6.25;4.43;;;;;;;;;;5036220;28;20021;-83
2023/03/23 08:30:13;;;;;;;6.47;3.65;;;;;;;;;;5036170;28;20115;-82
2023/03/23 08:32:39;;;;;;;6.32;4.20;;;;;;;;;;5039982;28;20035;-83
2023/03/23 08:35:07;;;;;;;7.30;3.90;;;;;;;;;;5033146;28;20029;-85
2023/03/23 08:37:33;;;;;;;9.18;4.70;;;;;;;;;;5040665;28;20029;-82
2023/03/23 08:39:58;;;;;;;5.90;3.45;;;;;;;;;;5037027;28;21124;-85
2023/03/23 08:42:24;;;;;;;4.13;2.72;;;;;;;;;;5033770;28;20377;-82
2023/03/23 08:44:51;;;;;;;4.00;2.47;;;;;;;;;;5026953;28;20021;-83
2023/03/23 08:47:17;;;;;;;4.50;2.78;;;;;;;;;;5036334;28;20485;-82
2023/03/23 08:49:43;;;;;;;2.97;2.20;;;;;;;;;;5029476;28;20854;-83
2023/03/23 08:52:09;;;;;;;4.07;2.42;;;;;;;;;;5044798;28;20128;-83
2023/03/23 08:54:34;;;;;;;4.45;2.80;;;;;;;;;;5035774;28;20472;-82
2023/03/23 08:57:00;;;;;;;4.05;2.53;;;;;;;;;;5035727;28;20701;-83
2023/03/23 08:59:26;;;;;;;3.67;2.58;;;;;;;;;;5036476;28;20550;-82
2023/03/23 09:01:52;;;;;;;5.43;2.38;;;;;;;;;;5037646;28;20155;-83
2023/03/23 09:04:18;;;;;;;4.28;2.40;;;;;;;;;;5035724;28;20057;-82
2023/03/23 09:06:45;;;;;;;3.05;1.98;;;;;;;;;;5034586;28;20067;-82
2023/03/23 09:09:11;;;;;;;4.82;2.80;;;;;;;;;;5028695;28;20113;-82
2023/03/23 09:11:37;;;;;;;8.77;4.50;;;;;;;;;;5038421;28;20434;-82
2023/03/23 09:14:04;;;;;;;9.45;5.03;;;;;;;;;;5031763;28;20028;-84
2023/03/23 09:16:31;;;;;;;4.70;3.55;;;;;;;;;;5035309;28;20082;-81
2023/03/23 09:18:56;;;;;;;3.83;2.53;;;;;;;;;;5036585;28;20021;-82
2023/03/23 09:21:23;;;;;;;6.03;2.67;;;;;;;;;;5035608;28;20033;-82
2023/03/23 09:23:49;;;;;;;2.78;2.00;;;;;;;;;;5033990;28;20484;-81
2023/03/23 09:26:15;;;;;;;4.55;2.70;;;;;;;;;;5031314;28;20029;-83
2023/03/23 09:28:40;;;;;;;4.40;3.00;;;;;;;;;;5035304;28;20522;-82
2023/03/23 09:31:06;;;;;;;4.95;2.83;;;;;;;;;;5034705;28;20464;-81
2023/03/23 09:33:35;;;;;;;5.60;2.83;;;;;;;;;;5033332;28;20048;-83
2023/03/23 09:36:02;;;;;;;6.88;3.03;;;;;;;;;;5031024;28;20469;-82
2023/03/23 09:38:31;;;;;;;5.50;3.03;;;;;;;;;;5036045;28;20026;-83
2023/03/23 09:41:15;;;;;;;4.95;3.20;;;;;;;;;;5031076;28;20025;-83
2023/03/23 09:43:53;;;;;;;4.25;2.40;;;;;;;;;;5072077;28;20029;-83
2023/03/23 09:46:40;;;;;;;3.72;2.20;;;;;;;;;;5034789;28;21596;-83
2023/03/23 09:49:34;;;;;;;8.10;2.92;;;;;;;;;;5034275;28;20025;-83
2023/03/23 09:52:09;;;;;;;5.57;2.72;;;;;;;;;;5035306;28;20044;-81
2023/03/23 09:54:49;;;;;;;3.45;2.47;;;;;;;;;;5038061;28;20478;-84
2023/03/23 09:57:40;;;;;;;6.32;2.58;;;;;;;;;;5029828;28;20025;-82
2023/03/23 10:00:14;;;;;;;5.35;3.05;;;;;;;;;;5015666;28;20041;-82
2023/03/23 10:02:56;;;;;;;4.40;2.53;;;;;;;;;;5038955;28;20099;-82
2023/03/23 10:05:45;;;;;;;4.30;2.53;;;;;;;;;;5035451;28;20026;-80
2023/03/23 10:08:21;;;;;;;5.32;2.92;;;;;;;;;;5034916;28;20025;-84
2023/03/23 10:11:07;;;;;;;5.38;3.00;;;;;;;;;;5037018;28;20033;-84
2023/03/23 10:13:48;;;;;;;5.20;2.85;;;;;;;;;;5039042;28;20056;-83
2023/03/23 10:16:28;;;;;;;3.65;2.20;;;;;;;;;;5039998;28;20040;-84
2023/03/23 10:19:07;;;;;;;4.72;2.13;;;;;;;;;;5038692;28;20386;-82
2023/03/23 10:21:35;;;;;;;6.65;3.33;;;;;;;;;;5031770;28;20104;-86
2023/03/23 10:24:04;;;;;;;3.95;2.50;;;;;;;;;;5040480;28;20025;-83
2023/03/23 10:27:05;;;;;;;5.15;2.45;;;;;;;;;;5032833;28;20053;-81
2023/03/23 10:29:36;;;;;;;3.90;1.48;;;;;;;;;;5029985;28;20033;-80
2023/03/23 10:32:05;;;;;;;4.75;2.38;;;;;;;;;;5041352;28;20041;-84
2023/03/23 10:34:36;;;;;;;4.95;2.25;;;;;;;;;;5042073;28;20392;-81
2023/03/23 10:37:11;;;;;;;2.95;2.13;;;;;;;;;;5036074;28;20056;-83
2023/03/23 10:40:09;;;;;;;5.28;2.15;;;;;;;;;;5033446;28;20087;-80
2023/03/23 10:42:38;;;;;;;4.38;2.22;;;;;;;;;;5038939;28;20037;-79
2023/03/23 10:45:24;;;;;;;3.63;2.13;;;;;;;;;;5036651;28;20033;-82
2023/03/23 10:47:58;;;;;;;3.22;1.90;;;;;;;;;;5055195;28;20104;-85
2023/03/23 10:50:31;;;;;;;4.78;2.22;;;;;;;;;;5039492;28;20519;-85
2023/03/23 10:52:59;;;;;;;3.45;2.47;;;;;;;;;;5044301;28;20367;-84
2023/03/23 10:55:41;;;;;;;2.97;1.98;;;;;;;;;;5040526;28;20441;-85
2023/03/23 10:58:10;;;;;;;5.10;2.50;;;;;;;;;;5045313;28;20025;-85
2023/03/23 11:00:44;;;;;;;4.85;2.75;;;;;;;;;;5038357;28;20029;-82
2023/03/23 11:03:13;;;;;;;5.95;3.42;;;;;;;;;;5033928;28;20466;-82
2023/03/23 11:05:43;;;;;;;6.70;2.38;;;;;;;;;;5035219;28;20041;-80
2023/03/23 11:08:23;;;;;;;3.17;2.03;;;;;;;;;;5045829;28;20444;-83
2023/03/23 11:10:50;;;;;;;6.22;3.28;;;;;;;;;;5042937;28;20031;-80
2023/03/23 11:13:17;;;;;;;4.50;2.67;;;;;;;;;;5037249;28;20104;-83
2023/03/23 11:15:46;;;;;;;5.05;2.70;;;;;;;;;;5031153;28;20025;-81
2023/03/23 11:18:18;;;;;;;3.58;2.10;;;;;;;;;;5032297;28;20049;-79
2023/03/23 11:20:48;;;;;;;3.50;1.92;;;;;;;;;;5033266;28;20043;-83
2023/03/23 11:23:22;;;;;;;3.60;1.88;;;;;;;;;;5034316;28;20025;-83
2023/03/23 11:26:14;;;;;;;3.90;2.30;;;;;;;;;;5033580;28;20037;-86
2023/03/23 11:28:59;;;;;;;2.13;1.52;;;;;;;;;;5033893;28;20158;-81
2023/03/23 11:31:38;;;;;;;4.03;2.38;;;;;;;;;;5042918;28;20032;-81
2023/03/23 11:34:16;;;;;;;3.15;2.03;;;;;;;;;;5041612;28;20516;-85
2023/03/23 11:36:48;;;;;;;7.30;2.97;;;;;;;;;;5035494;28;20025;-84
2023/03/23 11:39:29;;;;;;;7.35;2.25;;;;;;;;;;5040117;28;20358;-82
2023/03/23 11:41:57;;;;;;;5.38;2.50;;;;;;;;;;5033611;28;20393;-83
2023/03/23 11:44:24;;;;;;;4.88;2.30;;;;;;;;;;5042439;28;20474;-81
2023/03/23 11:47:02;;;;;;;4.05;2.22;;;;;;;;;;5053818;28;20025;-83
2023/03/23 11:49:40;;;;;;;4.85;2.58;;;;;;;;;;5033648;28;20551;-82
2023/03/23 11:52:35;;;;;;;4.78;2.70;;;;;;;;;;5047430;28;20033;-82
2023/03/23 11:55:09;;;;;;;4.50;2.42;;;;;;;;;;5039732;28;20144;-81
2023/03/23 11:57:35;;;;;;;4.47;2.33;;;;;;;;;;5058296;28;20530;-84
2023/03/23 12:00:07;;;;;;;3.70;2.67;;;;;;;;;;5043037;28;20037;-85
2023/03/23 12:02:47;;;;;;;5.20;2.75;;;;;;;;;;5034705;28;20081;-83
2023/03/23 12:05:35;;;;;;;4.43;2.58;;;;;;;;;;5036088;28;20520;-82
2023/03/23 12:08:39;;;;;;;2.85;1.65;;;;;;;;;;5032263;28;20025;-85
2023/03/23 12:11:35;;;;;;;5.70;2.45;;;;;;;;;;5036426;28;20041;-82
2023/03/23 12:14:20;;;;;;;2.47;2.08;;;;;;;;;;5031292;28;20060;-83
2023/03/23 12:16:50;;;;;;;2.50;1.42;;;;;;;;;;5044595;28;20025;-82
2023/03/23 12:19:34;;;;;;;3.58;2.13;;;;;;;;;;5036082;28;20029;-81
2023/03/23 12:22:17;;;;;;;4.22;2.15;;;;;;;;;;5042750;28;20037;-85
2023/03/23 12:25:17;;;;;;;4.32;2.42;;;;;;;;;;5036485;28;20537;-82
2023/03/23 12:27:52;;;;;;;3.38;2.33;;;;;;;;;;5044355;28;20037;-85
2023/03/23 12:30:51;;;;;;;5.18;2.63;;;;;;;;;;5039776;28;20396;-85
2023/03/23 12:33:22;;;;;;;4.82;2.40;;;;;;;;;;5038519;28;20076;-84
2023/03/23 12:35:51;;;;;;;5.15;2.90;;;;;;;;;;5041332;28;20029;-83
2023/03/23 12:38:34;;;;;;;4.10;2.35;;;;;;;;;;5037284;28;20029;-84
2023/03/23 12:41:09;;;;;;;3.17;2.33;;;;;;;;;;5033041;28;20033;-83
2023/03/23 12:43:38;;;;;;;3.95;2.33;;;;;;;;;;5039228;28;20028;-83
2023/03/23 12:46:35;;;;;;;8.18;2.97;;;;;;;;;;5037844;28;20040;-83
2023/03/23 12:49:19;;;;;;;3.75;2.30;;;;;;;;;;5032356;28;20129;-83
2023/03/23 12:52:11;;;;;;;3.97;2.85;;;;;;;;;;5040530;28;20067;-83
2023/03/23 12:54:51;;;;;;;3.80;2.38;;;;;;;;;;5040846;28;20025;-85
2023/03/23 12:57:38;;;;;;;3.45;2.72;;;;;;;;;;5038977;28;20369;-83
2023/03/23 13:00:20;;;;;;;4.15;2.50;;;;;;;;;;5038743;28;20040;-82
2023/03/23 13:02:53;;;;;;;5.30;2.45;;;;;;;;;;5032604;28;20054;-82
2023/03/23 13:05:22;;;;;;;4.88;2.72;;;;;;;;;;5042372;28;20037;-83
2023/03/23 13:07:53;;;;;;;4.75;2.60;;;;;;;;;;5046115;28;20104;-83
2023/03/23 13:10:19;;;;;;;3.25;2.55;;;;;;;;;;5037481;28;20033;-84
2023/03/23 13:12:47;;;;;;;4.00;2.60;;;;;;;;;;5037789;28;20492;-81
2023/03/23 13:15:27;;;;;;;4.72;2.35;;;;;;;;;;5031071;28;20025;-82
2023/03/23 13:18:18;;;;;;;4.28;2.40;;;;;;;;;;5037799;28;20036;-84
2023/03/23 13:21:14;;;;;;;5.05;2.22;;;;;;;;;;5041774;28;20050;-85
2023/03/23 13:23:43;;;;;;;4.38;2.45;;;;;;;;;;5040794;28;20079;-85
2023/03/23 13:26:12;;;;;;;3.55;2.60;;;;;;;;;;5045842;28;20121;-84
2023/03/23 13:28:53;;;;;;;6.68;2.83;;;;;;;;;;5030141;28;20041;-83
2023/03/23 13:31:26;;;;;;;3.70;2.50;;;;;;;;;;5031510;28;20489;-83
2023/03/23 13:33:59;;;;;;;5.50;2.83;;;;;;;;;;5035942;28;20031;-83
2023/03/23 13:36:56;;;;;;;3.45;1.95;;;;;;;;;;5049696;28;20604;-81
2023/03/23 13:39:26;;;;;;;3.15;2.08;;;;;;;;;;5033984;28;20053;-83
2023/03/23 13:42:07;;;;;;;4.40;2.50;;;;;;;;;;5041921;28;20029;-85
2023/03/23 13:44:48;;;;;;;4.30;2.72;;;;;;;;;;5041415;28;20493;-83
2023/03/23 13:47:28;;;;;;;5.57;2.20;;;;;;;;;;5036710;28;20026;-86
2023/03/23 13:49:59;;;;;;;3.47;2.45;;;;;;;;;;5047466;28;20036;-83
2023/03/23 13:52:40;;;;;;;4.40;2.20;;;;;;;;;;5037289;28;20114;-83
2023/03/23 13:55:27;;;;;;;5.55;2.75;;;;;;;;;;5047106;28;20024;-82
2023/03/23 13:57:58;;;;;;;4.25;2.47;;;;;;;;;;5040022;28;20419;-82
2023/03/23 14:00:29;;;;;;;5.13;2.63;;;;;;;;;;5040501;28;20029;-83
2023/03/23 14:03:14;;;;;;;5.40;2.95;;;;;;;;;;5036626;28;20053;-86
2023/03/23 14:05:43;;;;;;;4.72;2.85;;;;;;;;;;5033801;28;20075;-82
2023/03/23 14:08:08;;;;;;;4.63;2.50;;;;;;;;;;5038948;28;20381;-84
2023/03/23 14:10:55;;;;;;;4.13;2.20;;;;;;;;;;5037970;28;20034;-83
2023/03/23 14:13:58;;;;;;;5.18;3.22;;;;;;;;;;5038851;28;20052;-83
2023/03/23 14:16:27;;;;;;;3.67;2.38;;;;;;;;;;5047446;28;20033;-84
2023/03/23 14:18:58;;;;;;;4.45;2.65;;;;;;;;;;5033332;28;20034;-84
2023/03/23 14:21:36;;;;;;;4.72;2.95;;;;;;;;;;5034720;28;20561;-81
2023/03/23 14:24:15;;;;;;;3.50;2.22;;;;;;;;;;5041921;28;20044;-85
2023/03/23 14:26:42;;;;;;;3.72;2.50;;;;;;;;;;5040493;28;20091;-82
2023/03/23 14:29:10;;;;;;;4.43;2.88;;;;;;;;;;5034602;28;20033;-83
2023/03/23 14:31:37;;;;;;;4.18;2.80;;;;;;;;;;5042068;28;20480;-84
2023/03/23 14:34:19;;;;;;;3.72;2.38;;;;;;;;;;5041441;28;20104;-82
2023/03/23 14:36:45;;;;;;;4.45;2.72;;;;;;;;;;5036192;28;20025;-85
2023/03/23 14:39:24;;;;;;;5.28;2.88;;;;;;;;;;5049963;28;20785;-84
2023/03/23 14:41:52;;;;;;;3.05;2.22;;;;;;;;;;5041547;28;20040;-82
2023/03/23 14:44:25;;;;;;;4.13;2.42;;;;;;;;;;5039184;28;20064;-82
2023/03/23 14:46:53;;;;;;;5.13;2.63;;;;;;;;;;5039010;28;20048;-82
2023/03/23 14:49:26;;;;;;;4.25;2.38;;;;;;;;;;5036839;28;20025;-83
2023/03/23 14:51:54;;;;;;;6.95;2.53;;;;;;;;;;5041112;28;20039;-84
2023/03/23 14:54:25;;;;;;;3.45;2.30;;;;;;;;;;5039299;28;20029;-82
2023/03/23 14:56:51;;;;;;;4.13;2.53;;;;;;;;;;5049099;28;20033;-83
2023/03/23 14:59:17;;;;;;;4.57;2.67;;;;;;;;;;5031311;28;20381;-83
2023/03/23 15:01:45;;;;;;;4.28;2.65;;;;;;;;;;5036470;28;20052;-80
2023/03/23 15:04:19;;;;;;;5.50;3.05;;;;;;;;;;5042890;28;20113;-81
2023/03/23 15:06:51;;;;;;;4.40;2.70;;;;;;;;;;5039658;28;20482;-79